sensor_id;sensor_type;location;lat;lon;timestamp;P1;durP1;ratioP1;P2;durP2;ratioP2
24761;SDS011;12865;51.934;10.330;2023-04-05T00:00:47;5.35;;;3.17;;
24761;SDS011;12865;51.934;10.330;2023-04-05T00:03:33;4.57;;;2.70;;
24761;SDS011;12865;51.934;10.330;2023-04-05T00:06:20;4.15;;;2.80;;
24761;SDS011;12865;51.934;10.330;2023-04-05T00:09:13;3.53;;;2.40;;
24761;SDS011;12865;51.934;10.330;2023-04-05T00:11:58;3.50;;;2.60;;
24761;SDS011;12865;51.934;10.330;2023-04-05T00:14:44;5.65;;;2.88;;
24761;SDS011;12865;51.934;10.330;2023-04-05T00:17:30;4.32;;;2.70;;
24761;SDS011;12865;51.934;10.330;2023-04-05T00:20:16;5.85;;;3.20;;
24761;SDS011;12865;51.934;10.330;2023-04-05T00:23:02;5.57;;;3.10;;
24761;SDS011;12865;51.934;10.330;2023-04-05T00:25:50;4.43;;;2.15;;
24761;SDS011;12865;51.934;10.330;2023-04-05T00:28:36;5.57;;;3.05;;
24761;SDS011;12865;51.934;10.330;2023-04-05T00:31:22;5.18;;;2.88;;
24761;SDS011;12865;51.934;10.330;2023-04-05T00:34:07;7.25;;;3.03;;
24761;SDS011;12865;51.934;10.330;2023-04-05T00:36:54;5.70;;;2.80;;
24761;SDS011;12865;51.934;10.330;2023-04-05T00:39:40;5.43;;;3.15;;
24761;SDS011;12865;51.934;10.330;2023-04-05T00:42:26;4.15;;;3.72;;
24761;SDS011;12865;51.934;10.330;2023-04-05T00:45:12;5.78;;;3.60;;
24761;SDS011;12865;51.934;10.330;2023-04-05T00:47:58;5.38;;;3.55;;
24761;SDS011;12865;51.934;10.330;2023-04-05T00:50:45;4.13;;;2.83;;
24761;SDS011;12865;51.934;10.330;2023-04-05T00:53:33;5.40;;;3.03;;
24761;SDS011;12865;51.934;10.330;2023-04-05T00:56:19;4.20;;;2.58;;
24761;SDS011;12865;51.934;10.330;2023-04-05T00:59:06;6.05;;;2.50;;
24761;SDS011;12865;51.934;10.330;2023-04-05T01:01:54;5.93;;;2.70;;
24761;SDS011;12865;51.934;10.330;2023-04-05T01:04:46;5.50;;;2.70;;
24761;SDS011;12865;51.934;10.330;2023-04-05T01:07:41;4.28;;;2.67;;
24761;SDS011;12865;51.934;10.330;2023-04-05T01:10:35;4.95;;;2.72;;
24761;SDS011;12865;51.934;10.330;2023-04-05T01:13:24;4.50;;;2.78;;
24761;SDS011;12865;51.934;10.330;2023-04-05T01:16:10;4.95;;;3.00;;
24761;SDS011;12865;51.934;10.330;2023-04-05T01:18:56;4.07;;;2.38;;
24761;SDS011;12865;51.934;10.330;2023-04-05T01:22:01;3.70;;;2.63;;
24761;SDS011;12865;51.934;10.330;2023-04-05T01:30:43;2.90;;;2.50;;
24761;SDS011;12865;51.934;10.330;2023-04-05T01:36:20;3.33;;;2.55;;
24761;SDS011;12865;51.934;10.330;2023-04-05T01:39:12;5.10;;;2.70;;
24761;SDS011;12865;51.934;10.330;2023-04-05T01:41:59;5.10;;;2.50;;
24761;SDS011;12865;51.934;10.330;2023-04-05T01:44:46;4.22;;;2.50;;
24761;SDS011;12865;51.934;10.330;2023-04-05T01:47:32;5.60;;;2.67;;
24761;SDS011;12865;51.934;10.330;2023-04-05T01:50:17;5.07;;;3.00;;
24761;SDS011;12865;51.934;10.330;2023-04-05T01:53:03;4.35;;;2.53;;
24761;SDS011;12865;51.934;10.330;2023-04-05T01:55:49;4.80;;;3.00;;
24761;SDS011;12865;51.934;10.330;2023-04-05T01:58:35;7.97;;;2.70;;
24761;SDS011;12865;51.934;10.330;2023-04-05T02:01:20;6.05;;;2.92;;
24761;SDS011;12865;51.934;10.330;2023-04-05T02:04:06;5.40;;;2.53;;
24761;SDS011;12865;51.934;10.330;2023-04-05T02:06:52;3.60;;;2.70;;
24761;SDS011;12865;51.934;10.330;2023-04-05T02:09:37;3.17;;;2.65;;
24761;SDS011;12865;51.934;10.330;2023-04-05T02:12:23;3.88;;;2.67;;
24761;SDS011;12865;51.934;10.330;2023-04-05T02:15:09;3.58;;;2.30;;
24761;SDS011;12865;51.934;10.330;2023-04-05T02:17:54;3.42;;;2.22;;
24761;SDS011;12865;51.934;10.330;2023-04-05T02:20:40;4.57;;;2.67;;
24761;SDS011;12865;51.934;10.330;2023-04-05T02:23:26;3.67;;;2.40;;
24761;SDS011;12865;51.934;10.330;2023-04-05T02:26:14;4.18;;;2.45;;
24761;SDS011;12865;51.934;10.330;2023-04-05T02:29:00;5.40;;;2.72;;
24761;SDS011;12865;51.934;10.330;2023-04-05T02:31:46;2.63;;;2.30;;
24761;SDS011;12865;51.934;10.330;2023-04-05T02:34:31;3.65;;;2.75;;
24761;SDS011;12865;51.934;10.330;2023-04-05T02:37:18;5.28;;;3.05;;
24761;SDS011;12865;51.934;10.330;2023-04-05T02:40:05;6.90;;;2.20;;
24761;SDS011;12865;51.934;10.330;2023-04-05T02:42:53;4.05;;;1.83;;
24761;SDS011;12865;51.934;10.330;2023-04-05T02:45:39;3.00;;;2.13;;
24761;SDS011;12865;51.934;10.330;2023-04-05T02:48:24;3.95;;;2.70;;
24761;SDS011;12865;51.934;10.330;2023-04-05T02:51:10;5.63;;;2.53;;
24761;SDS011;12865;51.934;10.330;2023-04-05T02:53:56;4.30;;;2.60;;
24761;SDS011;12865;51.934;10.330;2023-04-05T02:56:41;5.43;;;2.40;;
24761;SDS011;12865;51.934;10.330;2023-04-05T02:59:27;3.95;;;2.30;;
24761;SDS011;12865;51.934;10.330;2023-04-05T03:02:13;3.17;;;2.63;;
24761;SDS011;12865;51.934;10.330;2023-04-05T03:05:00;2.80;;;2.10;;
24761;SDS011;12865;51.934;10.330;2023-04-05T03:07:46;5.25;;;2.83;;
24761;SDS011;12865;51.934;10.330;2023-04-05T03:10:35;3.40;;;2.20;;
24761;SDS011;12865;51.934;10.330;2023-04-05T03:13:21;3.70;;;2.10;;
24761;SDS011;12865;51.934;10.330;2023-04-05T03:16:06;3.97;;;2.40;;
24761;SDS011;12865;51.934;10.330;2023-04-05T03:18:52;5.63;;;2.53;;
24761;SDS011;12865;51.934;10.330;2023-04-05T03:21:38;3.03;;;2.33;;
24761;SDS011;12865;51.934;10.330;2023-04-05T03:24:24;6.40;;;2.78;;
24761;SDS011;12865;51.934;10.330;2023-04-05T03:27:09;4.22;;;2.30;;
24761;SDS011;12865;51.934;10.330;2023-04-05T03:29:55;4.38;;;2.33;;
24761;SDS011;12865;51.934;10.330;2023-04-05T03:32:41;2.83;;;2.33;;
24761;SDS011;12865;51.934;10.330;2023-04-05T03:35:27;4.15;;;2.22;;
24761;SDS011;12865;51.934;10.330;2023-04-05T03:38:13;7.50;;;2.58;;
24761;SDS011;12865;51.934;10.330;2023-04-05T03:41:00;3.83;;;2.08;;
24761;SDS011;12865;51.934;10.330;2023-04-05T03:43:49;3.53;;;2.13;;
24761;SDS011;12865;51.934;10.330;2023-04-05T03:46:35;3.78;;;2.22;;
24761;SDS011;12865;51.934;10.330;2023-04-05T03:49:22;3.30;;;2.10;;
24761;SDS011;12865;51.934;10.330;2023-04-05T03:52:07;4.28;;;2.35;;
24761;SDS011;12865;51.934;10.330;2023-04-05T03:54:54;3.33;;;2.58;;
24761;SDS011;12865;51.934;10.330;2023-04-05T03:57:40;5.03;;;2.33;;
24761;SDS011;12865;51.934;10.330;2023-04-05T04:00:26;3.28;;;2.22;;
24761;SDS011;12865;51.934;10.330;2023-04-05T04:03:12;3.70;;;2.40;;
24761;SDS011;12865;51.934;10.330;2023-04-05T04:05:59;3.30;;;2.00;;
24761;SDS011;12865;51.934;10.330;2023-04-05T04:08:45;3.75;;;2.15;;
24761;SDS011;12865;51.934;10.330;2023-04-05T04:11:31;3.47;;;2.00;;
24761;SDS011;12865;51.934;10.330;2023-04-05T04:14:17;4.70;;;2.42;;
24761;SDS011;12865;51.934;10.330;2023-04-05T04:17:02;8.57;;;2.60;;
24761;SDS011;12865;51.934;10.330;2023-04-05T04:19:48;4.60;;;2.20;;
24761;SDS011;12865;51.934;10.330;2023-04-05T04:22:34;3.60;;;2.20;;
24761;SDS011;12865;51.934;10.330;2023-04-05T04:25:23;4.28;;;2.50;;
24761;SDS011;12865;51.934;10.330;2023-04-05T04:28:10;4.00;;;2.38;;
24761;SDS011;12865;51.934;10.330;2023-04-05T04:30:56;3.58;;;2.28;;
24761;SDS011;12865;51.934;10.330;2023-04-05T04:33:42;4.78;;;2.65;;
24761;SDS011;12865;51.934;10.330;2023-04-05T04:36:28;4.05;;;2.10;;
24761;SDS011;12865;51.934;10.330;2023-04-05T04:39:19;6.32;;;2.42;;
24761;SDS011;12865;51.934;10.330;2023-04-05T04:42:11;5.28;;;2.40;;
24761;SDS011;12865;51.934;10.330;2023-04-05T04:44:56;3.65;;;2.72;;
24761;SDS011;12865;51.934;10.330;2023-04-05T04:47:42;3.40;;;2.47;;
24761;SDS011;12865;51.934;10.330;2023-04-05T04:50:30;4.93;;;2.45;;
24761;SDS011;12865;51.934;10.330;2023-04-05T04:53:16;3.28;;;2.50;;
24761;SDS011;12865;51.934;10.330;2023-04-05T04:56:06;4.47;;;2.15;;
24761;SDS011;12865;51.934;10.330;2023-04-05T04:58:53;7.15;;;2.55;;
24761;SDS011;12865;51.934;10.330;2023-04-05T05:01:43;3.45;;;2.13;;
24761;SDS011;12865;51.934;10.330;2023-04-05T05:04:29;3.58;;;2.72;;
24761;SDS011;12865;51.934;10.330;2023-04-05T05:07:16;4.32;;;2.45;;
24761;SDS011;12865;51.934;10.330;2023-04-05T05:10:03;5.13;;;2.40;;
24761;SDS011;12865;51.934;10.330;2023-04-05T05:12:49;3.95;;;2.30;;
24761;SDS011;12865;51.934;10.330;2023-04-05T05:15:38;5.30;;;2.47;;
24761;SDS011;12865;51.934;10.330;2023-04-05T05:21:11;4.82;;;2.53;;
24761;SDS011;12865;51.934;10.330;2023-04-05T05:23:57;5.47;;;2.70;;
24761;SDS011;12865;51.934;10.330;2023-04-05T05:26:42;2.53;;;2.22;;
24761;SDS011;12865;51.934;10.330;2023-04-05T05:29:28;7.30;;;2.45;;
24761;SDS011;12865;51.934;10.330;2023-04-05T05:32:17;4.00;;;2.50;;
24761;SDS011;12865;51.934;10.330;2023-04-05T05:35:03;6.22;;;2.72;;
24761;SDS011;12865;51.934;10.330;2023-04-05T05:37:49;5.10;;;2.67;;
24761;SDS011;12865;51.934;10.330;2023-04-05T05:40:35;3.17;;;2.15;;
24761;SDS011;12865;51.934;10.330;2023-04-05T05:43:21;6.05;;;2.85;;
24761;SDS011;12865;51.934;10.330;2023-04-05T05:46:06;6.03;;;2.63;;
24761;SDS011;12865;51.934;10.330;2023-04-05T05:48:55;5.50;;;2.42;;
24761;SDS011;12865;51.934;10.330;2023-04-05T05:51:41;4.05;;;2.47;;
24761;SDS011;12865;51.934;10.330;2023-04-05T05:54:27;6.47;;;2.42;;
24761;SDS011;12865;51.934;10.330;2023-04-05T05:57:12;4.32;;;2.40;;
24761;SDS011;12865;51.934;10.330;2023-04-05T05:59:58;5.95;;;2.28;;
24761;SDS011;12865;51.934;10.330;2023-04-05T06:02:44;2.92;;;1.90;;
24761;SDS011;12865;51.934;10.330;2023-04-05T06:05:30;6.65;;;3.53;;
24761;SDS011;12865;51.934;10.330;2023-04-05T06:08:15;6.30;;;2.47;;
24761;SDS011;12865;51.934;10.330;2023-04-05T06:11:01;2.58;;;1.90;;
24761;SDS011;12865;51.934;10.330;2023-04-05T06:13:47;3.78;;;2.05;;
24761;SDS011;12865;51.934;10.330;2023-04-05T06:16:34;4.80;;;2.15;;
24761;SDS011;12865;51.934;10.330;2023-04-05T06:19:19;8.20;;;2.67;;
24761;SDS011;12865;51.934;10.330;2023-04-05T06:22:05;5.75;;;2.60;;
24761;SDS011;12865;51.934;10.330;2023-04-05T06:28:06;2.70;;;1.95;;
24761;SDS011;12865;51.934;10.330;2023-04-05T06:30:52;3.47;;;2.20;;
24761;SDS011;12865;51.934;10.330;2023-04-05T06:33:38;5.13;;;1.95;;
24761;SDS011;12865;51.934;10.330;2023-04-05T06:36:24;6.95;;;2.55;;
24761;SDS011;12865;51.934;10.330;2023-04-05T06:39:11;6.70;;;2.35;;
24761;SDS011;12865;51.934;10.330;2023-04-05T06:41:56;4.28;;;2.17;;
24761;SDS011;12865;51.934;10.330;2023-04-05T06:44:42;3.50;;;1.90;;
24761;SDS011;12865;51.934;10.330;2023-04-05T06:47:32;3.90;;;2.08;;
24761;SDS011;12865;51.934;10.330;2023-04-05T06:50:22;3.08;;;2.20;;
24761;SDS011;12865;51.934;10.330;2023-04-05T06:53:07;5.30;;;2.42;;
24761;SDS011;12865;51.934;10.330;2023-04-05T06:55:54;4.45;;;2.20;;
24761;SDS011;12865;51.934;10.330;2023-04-05T06:58:40;6.43;;;2.58;;
24761;SDS011;12865;51.934;10.330;2023-04-05T07:04:47;5.50;;;3.67;;
24761;SDS011;12865;51.934;10.330;2023-04-05T07:07:33;3.72;;;3.25;;
24761;SDS011;12865;51.934;10.330;2023-04-05T07:10:24;6.65;;;4.88;;
24761;SDS011;12865;51.934;10.330;2023-04-05T07:13:12;6.97;;;5.68;;
24761;SDS011;12865;51.934;10.330;2023-04-05T07:15:58;6.97;;;6.20;;
24761;SDS011;12865;51.934;10.330;2023-04-05T07:18:45;6.25;;;2.72;;
24761;SDS011;12865;51.934;10.330;2023-04-05T07:24:59;4.38;;;2.50;;
24761;SDS011;12865;51.934;10.330;2023-04-05T07:27:44;5.03;;;2.65;;
24761;SDS011;12865;51.934;10.330;2023-04-05T07:30:30;4.32;;;2.78;;
24761;SDS011;12865;51.934;10.330;2023-04-05T07:33:16;4.65;;;2.58;;
24761;SDS011;12865;51.934;10.330;2023-04-05T07:36:02;3.47;;;2.20;;
24761;SDS011;12865;51.934;10.330;2023-04-05T07:38:48;5.45;;;2.00;;
24761;SDS011;12865;51.934;10.330;2023-04-05T07:41:34;5.45;;;3.75;;
24761;SDS011;12865;51.934;10.330;2023-04-05T07:44:21;4.50;;;3.42;;
24761;SDS011;12865;51.934;10.330;2023-04-05T07:47:07;9.38;;;2.90;;
24761;SDS011;12865;51.934;10.330;2023-04-05T07:49:52;4.65;;;2.70;;
24761;SDS011;12865;51.934;10.330;2023-04-05T07:52:38;6.00;;;3.47;;
24761;SDS011;12865;51.934;10.330;2023-04-05T07:55:24;9.65;;;3.20;;
24761;SDS011;12865;51.934;10.330;2023-04-05T07:58:11;5.63;;;3.38;;
24761;SDS011;12865;51.934;10.330;2023-04-05T08:01:00;7.70;;;4.78;;
24761;SDS011;12865;51.934;10.330;2023-04-05T08:03:47;6.20;;;3.63;;
24761;SDS011;12865;51.934;10.330;2023-04-05T08:06:33;8.38;;;3.35;;
24761;SDS011;12865;51.934;10.330;2023-04-05T08:09:19;4.75;;;3.10;;
24761;SDS011;12865;51.934;10.330;2023-04-05T08:12:05;4.93;;;3.30;;
24761;SDS011;12865;51.934;10.330;2023-04-05T08:14:51;6.05;;;3.70;;
24761;SDS011;12865;51.934;10.330;2023-04-05T08:17:36;8.95;;;3.60;;
24761;SDS011;12865;51.934;10.330;2023-04-05T08:20:22;7.15;;;3.97;;
24761;SDS011;12865;51.934;10.330;2023-04-05T08:23:08;6.43;;;3.53;;
24761;SDS011;12865;51.934;10.330;2023-04-05T08:25:54;7.47;;;3.47;;
24761;SDS011;12865;51.934;10.330;2023-04-05T08:28:39;6.03;;;4.30;;
24761;SDS011;12865;51.934;10.330;2023-04-05T08:31:25;4.97;;;4.13;;
24761;SDS011;12865;51.934;10.330;2023-04-05T08:34:11;6.05;;;3.60;;
24761;SDS011;12865;51.934;10.330;2023-04-05T08:36:57;6.35;;;4.00;;
24761;SDS011;12865;51.934;10.330;2023-04-05T08:42:35;4.38;;;2.78;;
24761;SDS011;12865;51.934;10.330;2023-04-05T08:45:26;6.93;;;3.60;;
24761;SDS011;12865;51.934;10.330;2023-04-05T08:48:13;4.72;;;3.30;;
24761;SDS011;12865;51.934;10.330;2023-04-05T08:51:00;5.38;;;2.75;;
24761;SDS011;12865;51.934;10.330;2023-04-05T08:53:47;3.80;;;3.13;;
24761;SDS011;12865;51.934;10.330;2023-04-05T08:56:33;4.70;;;3.35;;
24761;SDS011;12865;51.934;10.330;2023-04-05T08:59:20;4.88;;;3.10;;
24761;SDS011;12865;51.934;10.330;2023-04-05T09:02:16;9.95;;;3.33;;
24761;SDS011;12865;51.934;10.330;2023-04-05T09:05:04;5.22;;;3.00;;
24761;SDS011;12865;51.934;10.330;2023-04-05T09:07:53;4.20;;;2.72;;
24761;SDS011;12865;51.934;10.330;2023-04-05T09:10:42;3.65;;;2.40;;
24761;SDS011;12865;51.934;10.330;2023-04-05T09:13:28;6.70;;;3.00;;
24761;SDS011;12865;51.934;10.330;2023-04-05T09:16:15;5.30;;;2.60;;
24761;SDS011;12865;51.934;10.330;2023-04-05T09:19:01;4.35;;;2.88;;
24761;SDS011;12865;51.934;10.330;2023-04-05T09:22:00;3.67;;;2.70;;
24761;SDS011;12865;51.934;10.330;2023-04-05T09:24:49;3.92;;;2.65;;
24761;SDS011;12865;51.934;10.330;2023-04-05T09:27:35;3.08;;;2.58;;
24761;SDS011;12865;51.934;10.330;2023-04-05T09:30:50;4.57;;;2.67;;
24761;SDS011;12865;51.934;10.330;2023-04-05T09:33:36;4.72;;;2.53;;
24761;SDS011;12865;51.934;10.330;2023-04-05T09:36:22;4.35;;;2.88;;
24761;SDS011;12865;51.934;10.330;2023-04-05T09:39:08;4.40;;;2.10;;
24761;SDS011;12865;51.934;10.330;2023-04-05T09:42:10;4.43;;;2.42;;
24761;SDS011;12865;51.934;10.330;2023-04-05T09:44:58;3.92;;;2.60;;
24761;SDS011;12865;51.934;10.330;2023-04-05T09:47:55;3.10;;;2.40;;
24761;SDS011;12865;51.934;10.330;2023-04-05T09:50:42;4.20;;;2.25;;
24761;SDS011;12865;51.934;10.330;2023-04-05T09:53:28;3.28;;;2.20;;
24761;SDS011;12865;51.934;10.330;2023-04-05T09:56:13;5.28;;;2.08;;
24761;SDS011;12865;51.934;10.330;2023-04-05T09:59:00;3.38;;;2.00;;
24761;SDS011;12865;51.934;10.330;2023-04-05T10:01:49;4.10;;;2.05;;
24761;SDS011;12865;51.934;10.330;2023-04-05T10:04:40;2.50;;;2.00;;
24761;SDS011;12865;51.934;10.330;2023-04-05T10:07:26;3.63;;;2.20;;
24761;SDS011;12865;51.934;10.330;2023-04-05T10:10:13;3.50;;;2.30;;
24761;SDS011;12865;51.934;10.330;2023-04-05T10:13:00;3.15;;;2.00;;
24761;SDS011;12865;51.934;10.330;2023-04-05T10:15:50;3.30;;;1.83;;
24761;SDS011;12865;51.934;10.330;2023-04-05T10:18:50;3.70;;;2.35;;
24761;SDS011;12865;51.934;10.330;2023-04-05T10:21:38;2.92;;;2.58;;
24761;SDS011;12865;51.934;10.330;2023-04-05T10:27:50;3.25;;;2.10;;
24761;SDS011;12865;51.934;10.330;2023-04-05T10:33:44;2.60;;;2.08;;
24761;SDS011;12865;51.934;10.330;2023-04-05T10:39:39;2.85;;;2.38;;
24761;SDS011;12865;51.934;10.330;2023-04-05T10:42:36;3.30;;;2.70;;
24761;SDS011;12865;51.934;10.330;2023-04-05T10:45:30;4.50;;;2.22;;
24761;SDS011;12865;51.934;10.330;2023-04-05T10:51:25;3.97;;;2.20;;
24761;SDS011;12865;51.934;10.330;2023-04-05T10:54:12;2.95;;;2.15;;
24761;SDS011;12865;51.934;10.330;2023-04-05T10:57:07;2.78;;;2.10;;
24761;SDS011;12865;51.934;10.330;2023-04-05T10:59:54;2.80;;;2.25;;
24761;SDS011;12865;51.934;10.330;2023-04-05T11:02:40;3.25;;;2.13;;
24761;SDS011;12865;51.934;10.330;2023-04-05T11:05:33;2.13;;;1.85;;
24761;SDS011;12865;51.934;10.330;2023-04-05T11:08:20;3.42;;;2.30;;
24761;SDS011;12865;51.934;10.330;2023-04-05T11:11:06;2.25;;;1.90;;
24761;SDS011;12865;51.934;10.330;2023-04-05T11:13:53;2.80;;;2.20;;
24761;SDS011;12865;51.934;10.330;2023-04-05T11:16:44;3.22;;;2.28;;
24761;SDS011;12865;51.934;10.330;2023-04-05T11:22:33;3.08;;;2.22;;
24761;SDS011;12865;51.934;10.330;2023-04-05T11:25:22;3.75;;;2.42;;
24761;SDS011;12865;51.934;10.330;2023-04-05T11:31:57;2.88;;;2.30;;
24761;SDS011;12865;51.934;10.330;2023-04-05T11:34:46;3.25;;;2.30;;
24761;SDS011;12865;51.934;10.330;2023-04-05T11:37:53;2.97;;;2.42;;
24761;SDS011;12865;51.934;10.330;2023-04-05T11:40:45;5.00;;;2.40;;
24761;SDS011;12865;51.934;10.330;2023-04-05T11:43:32;2.40;;;2.10;;
24761;SDS011;12865;51.934;10.330;2023-04-05T11:46:30;3.33;;;2.42;;
24761;SDS011;12865;51.934;10.330;2023-04-05T11:49:16;2.55;;;2.13;;
24761;SDS011;12865;51.934;10.330;2023-04-05T11:52:09;2.72;;;2.03;;
24761;SDS011;12865;51.934;10.330;2023-04-05T11:54:57;4.65;;;2.10;;
24761;SDS011;12865;51.934;10.330;2023-04-05T11:57:42;3.08;;;2.22;;
24761;SDS011;12865;51.934;10.330;2023-04-05T12:00:28;3.72;;;2.67;;
24761;SDS011;12865;51.934;10.330;2023-04-05T12:03:14;3.30;;;2.08;;
24761;SDS011;12865;51.934;10.330;2023-04-05T12:06:01;3.42;;;2.15;;
24761;SDS011;12865;51.934;10.330;2023-04-05T12:08:49;2.58;;;2.10;;
24761;SDS011;12865;51.934;10.330;2023-04-05T12:11:35;3.25;;;2.30;;
24761;SDS011;12865;51.934;10.330;2023-04-05T12:14:23;3.03;;;2.47;;
24761;SDS011;12865;51.934;10.330;2023-04-05T12:17:08;3.92;;;2.97;;
24761;SDS011;12865;51.934;10.330;2023-04-05T12:19:54;3.40;;;2.30;;
24761;SDS011;12865;51.934;10.330;2023-04-05T12:22:41;6.13;;;3.10;;
24761;SDS011;12865;51.934;10.330;2023-04-05T12:25:27;3.28;;;2.20;;
24761;SDS011;12865;51.934;10.330;2023-04-05T12:28:13;2.22;;;2.00;;
24761;SDS011;12865;51.934;10.330;2023-04-05T12:30:59;3.90;;;2.65;;
24761;SDS011;12865;51.934;10.330;2023-04-05T12:33:45;4.25;;;2.85;;
24761;SDS011;12865;51.934;10.330;2023-04-05T12:36:31;4.13;;;2.72;;
24761;SDS011;12865;51.934;10.330;2023-04-05T12:39:17;6.30;;;2.63;;
24761;SDS011;12865;51.934;10.330;2023-04-05T12:42:05;4.03;;;2.45;;
24761;SDS011;12865;51.934;10.330;2023-04-05T12:45:01;2.97;;;2.28;;
24761;SDS011;12865;51.934;10.330;2023-04-05T12:47:49;4.95;;;2.50;;
24761;SDS011;12865;51.934;10.330;2023-04-05T12:50:45;3.75;;;2.30;;
24761;SDS011;12865;51.934;10.330;2023-04-05T12:53:43;5.05;;;2.13;;
24761;SDS011;12865;51.934;10.330;2023-04-05T12:56:30;3.83;;;2.38;;
24761;SDS011;12865;51.934;10.330;2023-04-05T12:59:16;4.68;;;2.25;;
24761;SDS011;12865;51.934;10.330;2023-04-05T13:02:02;4.88;;;2.97;;
24761;SDS011;12865;51.934;10.330;2023-04-05T13:04:48;4.55;;;2.30;;
24761;SDS011;12865;51.934;10.330;2023-04-05T13:07:33;2.90;;;2.53;;
24761;SDS011;12865;51.934;10.330;2023-04-05T13:10:20;4.18;;;2.30;;
24761;SDS011;12865;51.934;10.330;2023-04-05T13:13:07;2.90;;;2.17;;
24761;SDS011;12865;51.934;10.330;2023-04-05T13:15:53;2.80;;;2.45;;
24761;SDS011;12865;51.934;10.330;2023-04-05T13:18:39;3.90;;;2.28;;
24761;SDS011;12865;51.934;10.330;2023-04-05T13:24:52;2.92;;;2.25;;
24761;SDS011;12865;51.934;10.330;2023-04-05T13:27:38;3.50;;;2.40;;
24761;SDS011;12865;51.934;10.330;2023-04-05T13:30:23;3.88;;;2.60;;
24761;SDS011;12865;51.934;10.330;2023-04-05T13:33:09;3.72;;;2.67;;
24761;SDS011;12865;51.934;10.330;2023-04-05T13:35:55;5.07;;;2.90;;
24761;SDS011;12865;51.934;10.330;2023-04-05T13:38:41;2.50;;;2.30;;
24761;SDS011;12865;51.934;10.330;2023-04-05T13:41:26;3.30;;;2.20;;
24761;SDS011;12865;51.934;10.330;2023-04-05T13:44:12;3.28;;;2.60;;
24761;SDS011;12865;51.934;10.330;2023-04-05T13:46:58;2.40;;;2.20;;
24761;SDS011;12865;51.934;10.330;2023-04-05T13:49:43;4.68;;;2.63;;
24761;SDS011;12865;51.934;10.330;2023-04-05T13:52:29;2.42;;;2.20;;
24761;SDS011;12865;51.934;10.330;2023-04-05T13:55:15;3.17;;;2.58;;
24761;SDS011;12865;51.934;10.330;2023-04-05T13:58:01;2.55;;;2.10;;
24761;SDS011;12865;51.934;10.330;2023-04-05T14:00:46;4.75;;;2.50;;
24761;SDS011;12865;51.934;10.330;2023-04-05T14:03:32;4.20;;;2.63;;
24761;SDS011;12865;51.934;10.330;2023-04-05T14:06:18;3.58;;;2.90;;
24761;SDS011;12865;51.934;10.330;2023-04-05T14:09:04;6.20;;;2.70;;
24761;SDS011;12865;51.934;10.330;2023-04-05T14:11:50;3.25;;;2.45;;
24761;SDS011;12865;51.934;10.330;2023-04-05T14:14:36;4.32;;;2.80;;
24761;SDS011;12865;51.934;10.330;2023-04-05T14:17:21;2.95;;;2.58;;
24761;SDS011;12865;51.934;10.330;2023-04-05T14:20:07;3.10;;;2.75;;
24761;SDS011;12865;51.934;10.330;2023-04-05T14:22:53;4.93;;;2.67;;
24761;SDS011;12865;51.934;10.330;2023-04-05T14:25:39;3.20;;;2.00;;
24761;SDS011;12865;51.934;10.330;2023-04-05T14:28:24;3.40;;;2.45;;
24761;SDS011;12865;51.934;10.330;2023-04-05T14:31:10;4.18;;;2.65;;
24761;SDS011;12865;51.934;10.330;2023-04-05T14:33:56;2.90;;;2.33;;
24761;SDS011;12865;51.934;10.330;2023-04-05T14:36:45;5.18;;;2.60;;
24761;SDS011;12865;51.934;10.330;2023-04-05T14:39:31;4.32;;;2.50;;
24761;SDS011;12865;51.934;10.330;2023-04-05T14:42:17;3.53;;;2.78;;
24761;SDS011;12865;51.934;10.330;2023-04-05T14:45:02;4.50;;;2.80;;
24761;SDS011;12865;51.934;10.330;2023-04-05T14:47:48;9.80;;;6.70;;
24761;SDS011;12865;51.934;10.330;2023-04-05T14:50:37;4.70;;;3.55;;
24761;SDS011;12865;51.934;10.330;2023-04-05T14:53:23;3.33;;;2.50;;
24761;SDS011;12865;51.934;10.330;2023-04-05T14:56:09;3.83;;;2.33;;
24761;SDS011;12865;51.934;10.330;2023-04-05T14:58:55;4.50;;;2.55;;
24761;SDS011;12865;51.934;10.330;2023-04-05T15:01:41;3.40;;;2.55;;
24761;SDS011;12865;51.934;10.330;2023-04-05T15:04:28;2.95;;;2.33;;
24761;SDS011;12865;51.934;10.330;2023-04-05T15:07:14;24.20;;;20.90;;
24761;SDS011;12865;51.934;10.330;2023-04-05T15:10:00;6.70;;;4.88;;
24761;SDS011;12865;51.934;10.330;2023-04-05T15:12:46;3.53;;;2.60;;
24761;SDS011;12865;51.934;10.330;2023-04-05T15:15:31;3.15;;;2.63;;
24761;SDS011;12865;51.934;10.330;2023-04-05T15:18:17;2.88;;;2.15;;
24761;SDS011;12865;51.934;10.330;2023-04-05T15:21:03;2.70;;;2.47;;
24761;SDS011;12865;51.934;10.330;2023-04-05T15:26:38;3.95;;;2.58;;
24761;SDS011;12865;51.934;10.330;2023-04-05T15:29:25;3.60;;;2.45;;
24761;SDS011;12865;51.934;10.330;2023-04-05T15:32:11;3.75;;;2.20;;
24761;SDS011;12865;51.934;10.330;2023-04-05T15:34:56;2.90;;;2.60;;
24761;SDS011;12865;51.934;10.330;2023-04-05T15:37:42;2.58;;;2.33;;
24761;SDS011;12865;51.934;10.330;2023-04-05T15:40:28;3.55;;;2.50;;
24761;SDS011;12865;51.934;10.330;2023-04-05T15:43:14;6.40;;;2.40;;
24761;SDS011;12865;51.934;10.330;2023-04-05T15:45:59;3.72;;;2.30;;
24761;SDS011;12865;51.934;10.330;2023-04-05T15:48:45;3.03;;;2.15;;
24761;SDS011;12865;51.934;10.330;2023-04-05T15:51:34;4.80;;;2.70;;
24761;SDS011;12865;51.934;10.330;2023-04-05T15:57:06;3.45;;;2.38;;
24761;SDS011;12865;51.934;10.330;2023-04-05T15:59:52;3.45;;;2.17;;
24761;SDS011;12865;51.934;10.330;2023-04-05T16:02:38;3.00;;;2.70;;
24761;SDS011;12865;51.934;10.330;2023-04-05T16:05:24;4.13;;;2.50;;
24761;SDS011;12865;51.934;10.330;2023-04-05T16:08:10;3.42;;;2.28;;
24761;SDS011;12865;51.934;10.330;2023-04-05T16:10:56;5.05;;;2.40;;
24761;SDS011;12865;51.934;10.330;2023-04-05T16:13:42;3.53;;;2.00;;
24761;SDS011;12865;51.934;10.330;2023-04-05T16:16:28;3.60;;;2.30;;
24761;SDS011;12865;51.934;10.330;2023-04-05T16:19:13;3.95;;;3.13;;
24761;SDS011;12865;51.934;10.330;2023-04-05T16:22:02;6.15;;;3.97;;
24761;SDS011;12865;51.934;10.330;2023-04-05T16:24:56;6.13;;;3.30;;
24761;SDS011;12865;51.934;10.330;2023-04-05T16:27:42;6.03;;;4.53;;
24761;SDS011;12865;51.934;10.330;2023-04-05T16:30:28;4.05;;;2.80;;
24761;SDS011;12865;51.934;10.330;2023-04-05T16:33:14;4.00;;;3.28;;
24761;SDS011;12865;51.934;10.330;2023-04-05T16:35:59;3.85;;;3.30;;
24761;SDS011;12865;51.934;10.330;2023-04-05T16:38:46;3.70;;;3.25;;
24761;SDS011;12865;51.934;10.330;2023-04-05T16:41:33;6.32;;;2.85;;
24761;SDS011;12865;51.934;10.330;2023-04-05T16:44:20;6.63;;;4.75;;
24761;SDS011;12865;51.934;10.330;2023-04-05T16:47:06;3.15;;;2.83;;
24761;SDS011;12865;51.934;10.330;2023-04-05T16:49:51;3.30;;;3.00;;
24761;SDS011;12865;51.934;10.330;2023-04-05T16:52:37;8.07;;;4.30;;
24761;SDS011;12865;51.934;10.330;2023-04-05T16:55:23;5.32;;;3.72;;
24761;SDS011;12865;51.934;10.330;2023-04-05T16:58:09;6.68;;;3.53;;
24761;SDS011;12865;51.934;10.330;2023-04-05T17:00:55;6.25;;;3.63;;
24761;SDS011;12865;51.934;10.330;2023-04-05T17:03:43;3.75;;;2.70;;
24761;SDS011;12865;51.934;10.330;2023-04-05T17:06:31;4.50;;;3.88;;
24761;SDS011;12865;51.934;10.330;2023-04-05T17:09:17;4.97;;;3.67;;
24761;SDS011;12865;51.934;10.330;2023-04-05T17:12:04;4.43;;;3.30;;
24761;SDS011;12865;51.934;10.330;2023-04-05T17:14:50;7.13;;;5.38;;
24761;SDS011;12865;51.934;10.330;2023-04-05T17:17:36;8.65;;;5.10;;
24761;SDS011;12865;51.934;10.330;2023-04-05T17:20:21;18.00;;;15.30;;
24761;SDS011;12865;51.934;10.330;2023-04-05T17:23:07;46.00;;;41.10;;